Météo Nord-Pas-de-Calais   La météo au plus près de chez vous

Station météorologique

Observations météo à Dunkerque (59183)

59183001 11 m Dernier relevé à 23:12
20.9°C
Humidité 50 % Vent 12.6 km/h 1019.1 hPa

Journée consultée

Dimanche 6 Septembre 2026

Synthèse de la journée

Périodes de référence en UTC

Température maximale

26.1°C

à 16:00

06h 06h

Température minimale

13.4°C

à 05:48

18h 18h

Rafale maximale

32 km/h

à 13:48

00h 00h

Précipitations

0 mm

Cumul quotidien

06h 06h

Graphiques de la journée

Heure locale Réduire

Données détaillées

Relevés météo

Pas de 6 minutes Afficher les relevés infra-horaires
Relevés météo détaillés à Dunkerque pour le Dimanche 6 Septembre 2026
Heure Température °C Point de rosée °C Humidité % Vent moyen (raf.), km/h Précipitations mm Pression hPa Nébulosité Octas
23:12 20.9 °C 11.2 °C 54 % 7 km/h (9 km/h) 0 mm0 mm 1019.1 hPa
23:06 20.9 °C 11.2 °C 54 % 9 km/h (13 km/h) 0 mm0 mm 1019 hPa
23:00 21 °C 11.1 °C 53 % 8 km/h (12 km/h) 0 mm0 mm 1018.9 hPa
22:54 21 °C 10.8 °C 52 % 8 km/h (10 km/h) 0 mm0 mm 1019 hPa
22:48 21.1 °C 11.1 °C 53 % 9 km/h (10 km/h) 0 mm0 mm 1019 hPa
22:42 21.2 °C 11.5 °C 54 % 9 km/h (10 km/h) 0 mm0 mm 1019 hPa
22:36 21.4 °C 10.8 °C 51 % 9 km/h (12 km/h) 0 mm0 mm 1019 hPa
22:30 21.4 °C 10.8 °C 51 % 9 km/h (12 km/h) 0 mm0 mm 1019.1 hPa
22:24 21.6 °C 10.7 °C 50 % 9 km/h (12 km/h) 0 mm0 mm 1019.1 hPa
22:18 21.7 °C 10.8 °C 50 % 10 km/h (17 km/h) 0 mm0 mm 1019.2 hPa
22:12 21.7 °C 10.8 °C 50 % 13 km/h (17 km/h) 0 mm0 mm 1019.1 hPa
22:06 21.9 °C 11 °C 50 % 12 km/h (15 km/h) 0 mm0 mm 1019.1 hPa
22:00 22 °C 10.8 °C 49 % 12 km/h (17 km/h) 0 mm0 mm 1019.2 hPa
21:54 22.1 °C 10.9 °C 49 % 13 km/h (17 km/h) 0 mm0 mm 1019.2 hPa
21:48 22.2 °C 11 °C 49 % 12 km/h (15 km/h) 0 mm0 mm 1019.3 hPa
21:42 22.2 °C 11 °C 49 % 12 km/h (15 km/h) 0 mm0 mm 1019.4 hPa
21:36 22.1 °C 10.9 °C 49 % 11 km/h (14 km/h) 0 mm0 mm 1019.4 hPa
21:30 22 °C 10.8 °C 49 % 9 km/h (13 km/h) 0 mm0 mm 1019.5 hPa
21:24 22 °C 11.1 °C 50 % 9 km/h (11 km/h) 0 mm0 mm 1019.6 hPa
21:18 22 °C 10.8 °C 49 % 9 km/h (10 km/h) 0 mm0 mm 1019.7 hPa
21:12 22.1 °C 10.6 °C 48 % 8 km/h (10 km/h) 0 mm0 mm 1019.8 hPa
21:06 22.2 °C 11 °C 49 % 6 km/h (9 km/h) 0 mm0 mm 1019.9 hPa
21:00 22.3 °C 10.8 °C 48 % 6 km/h (10 km/h) 0 mm0 mm 1020 hPa
20:54 22.4 °C 10.5 °C 47 % 8 km/h (10 km/h) 0 mm0 mm 1020.1 hPa
20:48 22.5 °C 10.6 °C 47 % 9 km/h (14 km/h) 0 mm0 mm 1020.1 hPa
20:42 22.6 °C 10.7 °C 47 % 10 km/h (14 km/h) 0 mm0 mm 1020.1 hPa
20:36 22.7 °C 10.5 °C 46 % 10 km/h (14 km/h) 0 mm0 mm 1020.1 hPa
20:30 22.8 °C 10.9 °C 47 % 12 km/h (17 km/h) 0 mm0 mm 1020.2 hPa
20:24 22.9 °C 10.7 °C 46 % 14 km/h (19 km/h) 0 mm0 mm 1020.3 hPa
20:18 23.1 °C 10.5 °C 45 % 15 km/h (21 km/h) 0 mm0 mm 1020.2 hPa
20:12 23.3 °C 10.4 °C 44 % 15 km/h (21 km/h) 0 mm0 mm 1020.3 hPa
20:06 23.5 °C 10.2 °C 43 % 15 km/h (19 km/h) 0 mm0 mm 1020.2 hPa
20:00 23.6 °C 9.9 °C 42 % 17 km/h (25 km/h) 0 mm0 mm 1020.2 hPa
19:54 23.9 °C 10.2 °C 42 % 18 km/h (25 km/h) 0 mm0 mm 1020.2 hPa
19:48 24 °C 10.3 °C 42 % 18 km/h (25 km/h) 0 mm0 mm 1020.2 hPa
19:42 24.1 °C 10 °C 41 % 16 km/h (26 km/h) 0 mm0 mm 1019.9 hPa
19:36 24.4 °C 10.7 °C 42 % 16 km/h (26 km/h) 0 mm0 mm 1020 hPa
19:30 24.4 °C 10.3 °C 41 % 13 km/h (24 km/h) 0 mm0 mm 1019.8 hPa
19:24 24.3 °C 9.8 °C 40 % 12 km/h (14 km/h) 0 mm0 mm 1020 hPa
19:18 24.3 °C 10.2 °C 41 % 11 km/h (15 km/h) 0 mm0 mm 1020.2 hPa
19:12 24.2 °C 10.1 °C 41 % 10 km/h (14 km/h) 0 mm0 mm 1020.2 hPa
19:06 24.2 °C 9.7 °C 40 % 10 km/h (13 km/h) 0 mm0 mm 1020.4 hPa
19:00 24.2 °C 10.1 °C 41 % 12 km/h (17 km/h) 0 mm0 mm 1020.2 hPa
18:54 24.2 °C 9.4 °C 39 % 14 km/h (18 km/h) 0 mm0 mm 1020.1 hPa
18:48 24.3 °C 9.5 °C 39 % 15 km/h (18 km/h) 0 mm0 mm 1020 hPa
18:42 24.3 °C 9.8 °C 40 % 15 km/h (19 km/h) 0 mm0 mm 1020.1 hPa
18:36 24.4 °C 9.9 °C 40 % 14 km/h (18 km/h) 0 mm0 mm 1020.1 hPa
18:30 24.6 °C 10.1 °C 40 % 14 km/h (20 km/h) 0 mm0 mm 1020.1 hPa
18:24 24.6 °C 8.9 °C 37 % 15 km/h (21 km/h) 0 mm0 mm 1020.1 hPa
18:18 24.7 °C 9.8 °C 39 % 14 km/h (21 km/h) 0 mm0 mm 1020.3 hPa
18:12 24.7 °C 9.8 °C 39 % 13 km/h (22 km/h) 0 mm0 mm 1020.5 hPa
18:06 24.6 °C 9.3 °C 38 % 14 km/h (20 km/h) 0 mm0 mm 1020.8 hPa
18:00 24.6 °C 9.7 °C 39 % 15 km/h (22 km/h) 0 mm0 mm 1020.8 hPa
17:54 24.8 °C 9.9 °C 39 % 16 km/h (22 km/h) 0 mm0 mm 1020.9 hPa
17:48 24.9 °C 9.6 °C 38 % 17 km/h (23 km/h) 0 mm0 mm 1021.1 hPa
17:42 24.9 °C 9.6 °C 38 % 18 km/h (25 km/h) 0 mm0 mm 1021.2 hPa
17:36 25 °C 8.9 °C 36 % 19 km/h (26 km/h) 0 mm0 mm 1021.2 hPa
17:30 25 °C 10.1 °C 39 % 17 km/h (23 km/h) 0 mm0 mm 1021.3 hPa
17:24 25.1 °C 10.2 °C 39 % 15 km/h (21 km/h) 0 mm0 mm 1021.3 hPa
17:18 25.2 °C 9.5 °C 37 % 16 km/h (22 km/h) 0 mm0 mm 1021.4 hPa
17:12 25.4 °C 9.2 °C 36 % 16 km/h (22 km/h) 0 mm0 mm 1021.5 hPa
17:06 25.6 °C 9 °C 35 % 17 km/h (26 km/h) 0 mm0 mm 1021.5 hPa
17:00 26 °C 8.9 °C 34 % 17 km/h (26 km/h) 0 mm0 mm 1021.5 hPa
16:54 25.7 °C 9.1 °C 35 % 18 km/h (27 km/h) 0 mm0 mm 1021.4 hPa
16:48 25.5 °C 8.9 °C 35 % 17 km/h (24 km/h) 0 mm0 mm 1021.4 hPa
16:42 25.3 °C 8.7 °C 35 % 17 km/h (24 km/h) 0 mm0 mm 1021.5 hPa
16:36 25.3 °C 9.6 °C 37 % 16 km/h (24 km/h) 0 mm0 mm 1021.4 hPa
16:30 25.3 °C 9.6 °C 37 % 14 km/h (23 km/h) 0 mm0 mm 1021.3 hPa
16:24 25.3 °C 9.6 °C 37 % 12 km/h (22 km/h) 0 mm0 mm 1021.4 hPa
16:18 25.5 °C 8.9 °C 35 % 14 km/h (25 km/h) 0 mm0 mm 1021.6 hPa
16:12 25.9 °C 9.3 °C 35 % 13 km/h (25 km/h) 0 mm0 mm 1021.5 hPa
16:06 25.6 °C 9.8 °C 37 % 13 km/h (21 km/h) 0 mm0 mm 1021.7 hPa
16:00 26 °C 9.8 °C 36 % 15 km/h (24 km/h) 0 mm0 mm 1021.8 hPa
15:54 25.6 °C 9.8 °C 37 % 15 km/h (24 km/h) 0 mm0 mm 1021.7 hPa
15:48 25.9 °C 10.1 °C 37 % 14 km/h (23 km/h) 0 mm0 mm 1021.8 hPa
15:42 25.8 °C 10 °C 37 % 17 km/h (25 km/h) 0 mm0 mm 1021.8 hPa
15:36 25.8 °C 8.7 °C 34 % 15 km/h (25 km/h) 0 mm0 mm 1021.9 hPa
15:30 25.7 °C 9.9 °C 37 % 12 km/h (20 km/h) 0 mm0 mm 1022 hPa
15:24 25.7 °C 10.3 °C 38 % 12 km/h (23 km/h) 0 mm0 mm 1022.1 hPa
15:18 25 °C 10.5 °C 40 % 13 km/h (23 km/h) 0 mm0 mm 1022.2 hPa
15:12 24.7 °C 9.8 °C 39 % 14 km/h (22 km/h) 0 mm0 mm 1022.2 hPa
15:06 24.9 °C 10 °C 39 % 16 km/h (28 km/h) 0 mm0 mm 1022.2 hPa
15:00 24.9 °C 10.4 °C 40 % 15 km/h (24 km/h) 0 mm0 mm 1022.4 hPa
14:54 24.8 °C 10.3 °C 40 % 14 km/h (26 km/h) 0 mm0 mm 1022.5 hPa
14:48 25.3 °C 11.1 °C 41 % 14 km/h (26 km/h) 0 mm0 mm 1022.6 hPa
14:42 24.9 °C 11.1 °C 42 % 15 km/h (26 km/h) 0 mm0 mm 1022.7 hPa
14:36 24.7 °C 10.6 °C 41 % 16 km/h (23 km/h) 0 mm0 mm 1022.6 hPa
14:30 24.7 °C 11.6 °C 44 % 15 km/h (23 km/h) 0 mm0 mm 1022.7 hPa
14:24 24.7 °C 11.3 °C 43 % 17 km/h (28 km/h) 0 mm0 mm 1022.7 hPa
14:18 24.8 °C 11 °C 42 % 18 km/h (28 km/h) 0 mm0 mm 1022.7 hPa
14:12 24.6 °C 10.8 °C 42 % 17 km/h (24 km/h) 0 mm0 mm 1022.7 hPa
14:06 24.7 °C 11.3 °C 43 % 19 km/h (29 km/h) 0 mm0 mm 1022.8 hPa
14:00 24.9 °C 11.5 °C 43 % 18 km/h (29 km/h) 0 mm0 mm 1022.8 hPa 5 Octas
13:54 24.5 °C 11.1 °C 43 % 18 km/h (28 km/h) 0 mm0 mm 1022.8 hPa
13:48 24.3 °C 11.3 °C 44 % 21 km/h (32 km/h) 0 mm0 mm 1022.8 hPa
13:42 24.2 °C 11.5 °C 45 % 18 km/h (28 km/h) 0 mm0 mm 1022.9 hPa
13:36 23.9 °C 11.2 °C 45 % 19 km/h (29 km/h) 0 mm0 mm 1023 hPa
13:30 23.8 °C 11.1 °C 45 % 19 km/h (29 km/h) 0 mm0 mm 1022.9 hPa
13:24 23.8 °C 11.1 °C 45 % 17 km/h (31 km/h) 0 mm0 mm 1023 hPa
13:18 23.5 °C 11.9 °C 48 % 18 km/h (27 km/h) 0 mm0 mm 1023.1 hPa
13:12 23.3 °C 12 °C 49 % 19 km/h (27 km/h) 0 mm0 mm 1023.1 hPa
13:06 23.1 °C 11.8 °C 49 % 17 km/h (26 km/h) 0 mm0 mm 1023.2 hPa
13:00 23.1 °C 11.5 °C 48 % 18 km/h (26 km/h) 0 mm0 mm 1023.2 hPa
12:54 22.9 °C 11.6 °C 49 % 21 km/h (31 km/h) 0 mm0 mm 1023.4 hPa
12:48 22.8 °C 11.5 °C 49 % 23 km/h (31 km/h) 0 mm0 mm 1023.5 hPa
12:42 22.9 °C 11.9 °C 50 % 23 km/h (30 km/h) 0 mm0 mm 1023.6 hPa
12:36 22.8 °C 11.5 °C 49 % 21 km/h (28 km/h) 0 mm0 mm 1023.5 hPa
12:30 22.3 °C 11.4 °C 50 % 21 km/h (29 km/h) 0 mm0 mm 1023.6 hPa
12:24 22.3 °C 11.4 °C 50 % 20 km/h (29 km/h) 0 mm0 mm 1023.7 hPa
12:18 22.1 °C 11.5 °C 51 % 19 km/h (28 km/h) 0 mm0 mm 1023.7 hPa
12:12 22.1 °C 11.5 °C 51 % 19 km/h (27 km/h) 0 mm0 mm 1023.7 hPa
12:06 21.7 °C 11.4 °C 52 % 18 km/h (25 km/h) 0 mm0 mm 1023.7 hPa
12:00 21.8 °C 11.8 °C 53 % 19 km/h (27 km/h) 0 mm0 mm 1023.7 hPa
11:54 21.7 °C 11.1 °C 51 % 19 km/h (27 km/h) 0 mm0 mm 1023.8 hPa
11:48 21.9 °C 11.3 °C 51 % 18 km/h (27 km/h) 0 mm0 mm 1024 hPa
11:42 21.7 °C 11.7 °C 53 % 19 km/h (25 km/h) 0 mm0 mm 1024.1 hPa
11:36 21.2 °C 11.5 °C 54 % 19 km/h (25 km/h) 0 mm0 mm 1024.1 hPa
11:30 20.9 °C 11.5 °C 55 % 20 km/h (27 km/h) 0 mm0 mm 1024.2 hPa
11:24 20.9 °C 11.5 °C 55 % 21 km/h (28 km/h) 0 mm0 mm 1024.3 hPa
11:18 20.6 °C 11.5 °C 56 % 21 km/h (28 km/h) 0 mm0 mm 1024.3 hPa
11:12 20.2 °C 11.4 °C 57 % 19 km/h (24 km/h) 0 mm0 mm 1024.4 hPa
11:06 20 °C 11.5 °C 58 % 18 km/h (24 km/h) 0 mm0 mm 1024.4 hPa
11:00 20 °C 12 °C 60 % 16 km/h (24 km/h) 0 mm0 mm 1024.5 hPa 5 Octas
10:54 19.4 °C 12.4 °C 64 % 15 km/h (20 km/h) 0 mm0 mm 1024.5 hPa
10:48 18.8 °C 11.4 °C 62 % 15 km/h (20 km/h) 0 mm0 mm 1024.5 hPa
10:42 19.4 °C 12.2 °C 63 % 13 km/h (19 km/h) 0 mm0 mm 1024.5 hPa
10:36 18.9 °C 11.7 °C 63 % 13 km/h (18 km/h) 0 mm0 mm 1024.5 hPa
10:30 18.8 °C 12.1 °C 65 % 14 km/h (21 km/h) 0 mm0 mm 1024.6 hPa
10:24 18.6 °C 11.9 °C 65 % 14 km/h (21 km/h) 0 mm0 mm 1024.7 hPa
10:18 18.2 °C 12.2 °C 68 % 13 km/h (17 km/h) 0 mm0 mm 1024.7 hPa
10:12 18.1 °C 11.9 °C 67 % 14 km/h (20 km/h) 0 mm0 mm 1024.7 hPa
10:06 17.5 °C 11.3 °C 67 % 14 km/h (20 km/h) 0 mm0 mm 1024.7 hPa
10:00 17.5 °C 11.5 °C 68 % 15 km/h (21 km/h) 0 mm0 mm 1024.7 hPa
09:54 17.2 °C 11.5 °C 69 % 15 km/h (21 km/h) 0 mm0 mm 1024.6 hPa
09:48 16.8 °C 11.3 °C 70 % 14 km/h (18 km/h) 0 mm0 mm 1024.7 hPa
09:42 16.6 °C 11.5 °C 72 % 14 km/h (19 km/h) 0 mm0 mm 1024.7 hPa
09:36 16.4 °C 11.5 °C 73 % 14 km/h (18 km/h) 0 mm0 mm 1024.7 hPa
09:30 16.2 °C 11.4 °C 73 % 14 km/h (18 km/h) 0 mm0 mm 1024.7 hPa
09:24 15.8 °C 11.4 °C 75 % 15 km/h (21 km/h) 0 mm0 mm 1024.8 hPa
09:18 15.6 °C 11.2 °C 75 % 15 km/h (18 km/h) 0 mm0 mm 1024.7 hPa
09:12 15.6 °C 11.2 °C 75 % 14 km/h (18 km/h) 0 mm0 mm 1024.8 hPa
09:06 15.2 °C 11.2 °C 77 % 13 km/h (18 km/h) 0 mm0 mm 1024.8 hPa
09:00 15 °C 11.2 °C 78 % 14 km/h (18 km/h) 0 mm0 mm 1024.8 hPa
08:54 14.7 °C 10.9 °C 78 % 14 km/h (19 km/h) 0 mm0 mm 1024.7 hPa
08:48 14.5 °C 10.7 °C 78 % 13 km/h (18 km/h) 0 mm0 mm 1024.8 hPa
08:42 14.5 °C 10.9 °C 79 % 13 km/h (16 km/h) 0 mm0 mm 1024.8 hPa
08:36 14.2 °C 11 °C 81 % 13 km/h (18 km/h) 0 mm0 mm 1024.8 hPa
08:30 14 °C 10.8 °C 81 % 13 km/h (18 km/h) 0 mm0 mm 1024.8 hPa
08:24 13.9 °C 10.7 °C 81 % 13 km/h (17 km/h) 0 mm0 mm 1024.8 hPa
08:18 14 °C 11 °C 82 % 13 km/h (18 km/h) 0 mm0 mm 1024.8 hPa
08:12 13.8 °C 10.6 °C 81 % 14 km/h (18 km/h) 0 mm0 mm 1024.9 hPa
08:06 14 °C 10.8 °C 81 % 14 km/h (18 km/h) 0 mm0 mm 1025 hPa
08:00 13.8 °C 10.8 °C 82 % 13 km/h (18 km/h) 0 mm0 mm 1025.1 hPa
07:54 13.8 °C 10.8 °C 82 % 13 km/h (18 km/h) 0 mm0 mm 1025.1 hPa
07:48 13.7 °C 10.7 °C 82 % 12 km/h (16 km/h) 0 mm0 mm 1025.1 hPa
07:42 13.7 °C 10.9 °C 83 % 13 km/h (17 km/h) 0 mm0 mm 1025.2 hPa
07:36 13.7 °C 10.7 °C 82 % 14 km/h (19 km/h) 0 mm0 mm 1025.2 hPa
07:30 13.7 °C 10.9 °C 83 % 14 km/h (19 km/h) 0 mm0 mm 1025.1 hPa
07:24 13.7 °C 10.9 °C 83 % 13 km/h (17 km/h) 0 mm0 mm 1024.9 hPa
07:18 13.6 °C 10.8 °C 83 % 13 km/h (17 km/h) 0 mm0 mm 1024.9 hPa
07:12 13.6 °C 10.6 °C 82 % 13 km/h (16 km/h) 0 mm0 mm 1025 hPa
07:06 13.7 °C 10.7 °C 82 % 12 km/h (16 km/h) 0 mm0 mm 1025 hPa
07:00 13.8 °C 10.6 °C 81 % 12 km/h (16 km/h) 0 mm0 mm 1025 hPa
06:54 13.8 °C 11 °C 83 % 13 km/h (16 km/h) 0 mm0 mm 1024.9 hPa
06:48 13.7 °C 11 °C 84 % 13 km/h (16 km/h) 0 mm0 mm 1024.8 hPa
06:42 13.6 °C 11.1 °C 85 % 12 km/h (14 km/h) 0 mm0 mm 1024.8 hPa
06:36 13.6 °C 11.1 °C 85 % 12 km/h (14 km/h) 0 mm0 mm 1024.9 hPa
06:30 13.7 °C 11.4 °C 86 % 10 km/h (13 km/h) 0 mm0 mm 1025 hPa
06:24 13.6 °C 11.3 °C 86 % 10 km/h (12 km/h) 0 mm0 mm 1025.2 hPa
06:18 13.5 °C 11.2 °C 86 % 10 km/h (12 km/h) 0 mm0 mm 1025.3 hPa
06:12 13.4 °C 11.1 °C 86 % 9 km/h (12 km/h) 0 mm0 mm 1025.3 hPa
06:06 13.4 °C 11.1 °C 86 % 8 km/h (12 km/h) 0 mm0 mm 1025.5 hPa
06:00 13.4 °C 11.1 °C 86 % 9 km/h (13 km/h) 0 mm0 mm 1025.6 hPa
05:54 13.4 °C 11.1 °C 86 % 9 km/h (13 km/h) 0 mm0 mm 1025.6 hPa
05:48 13.4 °C 10.9 °C 85 % 8 km/h (10 km/h) 0 mm0 mm 1025.6 hPa
05:42 13.5 °C 10.8 °C 84 % 8 km/h (17 km/h) 0 mm0 mm 1025.7 hPa
05:36 13.7 °C 10.9 °C 83 % 10 km/h (17 km/h) 0 mm0 mm 1025.6 hPa
05:30 14 °C 11.2 °C 83 % 10 km/h (14 km/h) 0 mm0 mm 1025.6 hPa
05:24 14.2 °C 11 °C 81 % 10 km/h (14 km/h) 0 mm0 mm 1025.7 hPa
05:18 14.5 °C 11.5 °C 82 % 10 km/h (14 km/h) 0 mm0 mm 1025.7 hPa
05:12 14.5 °C 11.5 °C 82 % 8 km/h (13 km/h) 0 mm0 mm 1025.7 hPa
05:06 14.6 °C 11.7 °C 83 % 6 km/h (9 km/h) 0 mm0 mm 1025.6 hPa
05:00 14.4 °C 11.5 °C 83 % 6 km/h (9 km/h) 0 mm0 mm 1025.7 hPa 5 Octas
04:54 14.3 °C 11.4 °C 83 % 7 km/h (9 km/h) 0 mm0 mm 1025.8 hPa
04:48 14.3 °C 11.4 °C 83 % 7 km/h (10 km/h) 0 mm0 mm 1025.8 hPa
04:42 14.3 °C 11.4 °C 83 % 8 km/h (10 km/h) 0 mm0 mm 1025.9 hPa
04:36 14.4 °C 11.5 °C 83 % 9 km/h (11 km/h) 0 mm0 mm 1026 hPa
04:30 14.4 °C 11.5 °C 83 % 9 km/h (11 km/h) 0 mm0 mm 1026 hPa
04:24 14.3 °C 11.4 °C 83 % 8 km/h (11 km/h) 0 mm0 mm 1026 hPa
04:18 14.3 °C 11.4 °C 83 % 8 km/h (12 km/h) 0 mm0 mm 1026.1 hPa
04:12 14.5 °C 11.5 °C 82 % 8 km/h (11 km/h) 0 mm0 mm 1026.2 hPa
04:06 14.6 °C 11.7 °C 83 % 8 km/h (11 km/h) 0 mm0 mm 1026.2 hPa
04:00 14.5 °C 11.6 °C 83 % 8 km/h (11 km/h) 0 mm0 mm 1026.3 hPa
03:54 14.4 °C 11.5 °C 83 % 7 km/h (10 km/h) 0 mm0 mm 1026.3 hPa
03:48 14.4 °C 11.5 °C 83 % 6 km/h (8 km/h) 0 mm0 mm 1026.4 hPa
03:42 14.4 °C 11.4 °C 82 % 6 km/h (8 km/h) 0 mm0 mm 1026.5 hPa
03:36 14.5 °C 11.5 °C 82 % 5 km/h (8 km/h) 0 mm0 mm 1026.4 hPa
03:30 14.6 °C 11.4 °C 81 % 4 km/h (7 km/h) 0 mm0 mm 1026.4 hPa
03:24 14.8 °C 11.6 °C 81 % 5 km/h (9 km/h) 0 mm0 mm 1026.5 hPa
03:18 15.1 °C 11.9 °C 81 % 7 km/h (9 km/h) 0 mm0 mm 1026.5 hPa
03:12 15.2 °C 12.1 °C 82 % 7 km/h (9 km/h) 0 mm0 mm 1026.5 hPa
03:06 15.1 °C 12 °C 82 % 6 km/h (8 km/h) 0 mm0 mm 1026.4 hPa
03:00 15.2 °C 12 °C 81 % 6 km/h (8 km/h) 0 mm0 mm 1026.4 hPa
02:54 15.4 °C 12.2 °C 81 % 7 km/h (8 km/h) 0 mm0 mm 1026.4 hPa
02:48 15.4 °C 12.2 °C 81 % 8 km/h (10 km/h) 0 mm0 mm 1026.4 hPa
02:42 15.2 °C 12 °C 81 % 8 km/h (11 km/h) 0 mm0 mm 1026.4 hPa
02:36 15.1 °C 12 °C 82 % 9 km/h (11 km/h) 0 mm0 mm 1026.5 hPa
02:30 14.9 °C 11.9 °C 82 % 8 km/h (10 km/h) 0 mm0 mm 1026.5 hPa
02:24 14.8 °C 11.8 °C 82 % 8 km/h (9 km/h) 0 mm0 mm 1026.4 hPa
02:18 14.8 °C 11.8 °C 82 % 8 km/h (9 km/h) 0 mm0 mm 1026.6 hPa
02:12 14.8 °C 11.8 °C 82 % 8 km/h (10 km/h) 0 mm0 mm 1026.6 hPa
02:06 14.7 °C 11.8 °C 83 % 8 km/h (11 km/h) 0 mm0 mm 1026.7 hPa
02:00 14.6 °C 11.6 °C 82 % 8 km/h (11 km/h) 0 mm0 mm 1026.7 hPa
01:54 14.6 °C 11.6 °C 82 % 8 km/h (10 km/h) 0 mm0 mm 1026.6 hPa
01:48 14.6 °C 11.7 °C 83 % 8 km/h (11 km/h) 0 mm0 mm 1026.7 hPa
01:42 14.5 °C 11.5 °C 82 % 9 km/h (11 km/h) 0 mm0 mm 1026.7 hPa
01:36 14.6 °C 11.6 °C 82 % 10 km/h (12 km/h) 0 mm0 mm 1026.9 hPa
01:30 14.7 °C 11.7 °C 82 % 11 km/h (13 km/h) 0 mm0 mm 1027 hPa
01:24 14.9 °C 11.9 °C 82 % 11 km/h (13 km/h) 0 mm0 mm 1026.9 hPa
01:18 14.9 °C 11.5 °C 80 % 10 km/h (13 km/h) 0 mm0 mm 1026.8 hPa
01:12 15 °C 11.6 °C 80 % 10 km/h (12 km/h) 0 mm0 mm 1026.5 hPa
01:06 15 °C 11.8 °C 81 % 10 km/h (12 km/h) 0 mm0 mm 1026.4 hPa
01:00 15 °C 11.6 °C 80 % 9 km/h (13 km/h) 0 mm0 mm 1026.5 hPa
00:54 15 °C 11.4 °C 79 % 7 km/h (12 km/h) 0 mm0 mm 1026.3 hPa
00:48 15.1 °C 11.5 °C 79 % 6 km/h (9 km/h) 0 mm0 mm 1026.2 hPa
00:42 15.2 °C 11.6 °C 79 % 8 km/h (12 km/h) 0 mm0 mm 1026.2 hPa
00:36 15.2 °C 11.4 °C 78 % 9 km/h (12 km/h) 0 mm0 mm 1026.2 hPa
00:30 15.4 °C 11.8 °C 79 % 8 km/h (11 km/h) 0 mm0 mm 1026.3 hPa
00:24 15.4 °C 11.6 °C 78 % 8 km/h (12 km/h) 0 mm0 mm 1026.1 hPa
00:18 15.4 °C 11.6 °C 78 % 11 km/h (16 km/h) 0 mm0 mm 1026.2 hPa
00:12 15.6 °C 11.8 °C 78 % 12 km/h (16 km/h) 0 mm0 mm 1026.2 hPa
00:06 15.8 °C 11.8 °C 77 % 11 km/h (14 km/h) 0 mm0 mm 1026.1 hPa
00:00 16 °C 12 °C 77 % 11 km/h (13 km/h) 0 mm0 mm 1026.1 hPa

Données via Météo-France

Relevés météo à Dunkerque

Cette page rassemble les observations de la station de Dunkerque : température, humidité, vent, précipitations et pression atmosphérique. Les graphiques facilitent le suivi de la journée, tandis que le tableau donne accès aux mesures horaires et infra-horaires disponibles.

Pour replacer ces mesures dans leur contexte, consultez la climatologie de Dunkerque ainsi que ses normales et records. Retrouvez aussi la carte des observations météo en temps réel.